Terminal Aerodrome Forecast
Issued by NWS Sterling, VA

Home | Current Version | Previous Version | Text Only | Print | Product List | Glossary On
Versions: 1 2 3 4 5 6 7 8 9 10 11 12 13 14 15 16 17 18 19 20 21 22 23 24 25 26 27 28 29 30 31
000
FTUS41 KLWX 200523
TAFIAD
TAF
KIAD 200523Z 2006/2112 19007KT P6SM OVC007 WS020/22040KT
      TEMPO 2009/2012 SCT008 BKN012
     FM201200 20008KT P6SM SCT012 SCT050 BKN200
      TEMPO 2012/2015 BKN012
     FM201500 20011KT P6SM SCT050 OVC200
     FM210500 20007KT P6SM SCT250=

USA.gov is the U.S. government's official web portal to all federal, state and local government web resources and services.